Terminal Aerodrome Forecast
Issued by NWS Indianapolis, IN

Home | Current Version | Previous Version | Text Only | Print | Product List | Glossary On
Versions: 1 2 3 4 5 6 7 8 9 10 11 12 13 14 15 16 17 18 19 20 21 22 23 24 25 26 27 28 29 30 31 32
000
FTUS43 KIND 031100
TAFIND
TAF
KIND 031122Z 0312/0418 14010KT P6SM BKN025 OVC040
     FM031400 15011KT P6SM OVC015 WS015/20035KT
      TEMPO 0314/0317 6SM -FZRA
     FM031700 18013KT 4SM -RA BR BKN006 OVC015 WS015/21038KT
     FM031900 19013KT 1 1/2SM -RA BR OVC004 WS015/21038KT
     FM032300 24011KT 1 1/2SM -RA BR OVC004
     FM040500 28008KT 3SM -RASN BR OVC006
     FM041000 32008KT P6SM OVC015=

USA.gov is the U.S. government's official web portal to all federal, state and local government web resources and services.